createdAt,value
2022-12-08T00:00:38.160Z,21
2022-12-08T00:01:40.257Z,20.9
2022-12-08T00:02:43.024Z,21
2022-12-08T00:03:45.422Z,21
2022-12-08T00:04:47.474Z,21
2022-12-08T00:05:49.347Z,21
2022-12-08T00:06:50.964Z,21
2022-12-08T00:07:52.908Z,21
2022-12-08T00:08:55.011Z,20.9
2022-12-08T00:09:56.785Z,20.9
2022-12-08T00:10:58.632Z,20.9
2022-12-08T00:12:00.455Z,20.9
2022-12-08T00:13:02.304Z,20.9
2022-12-08T00:14:04.051Z,20.9
2022-12-08T00:15:06.461Z,20.9
2022-12-08T00:16:08.683Z,20.9
2022-12-08T00:17:10.518Z,20.9
2022-12-08T00:18:12.263Z,20.9
2022-12-08T00:19:13.915Z,21
2022-12-08T00:20:15.679Z,20.9
2022-12-08T00:21:17.380Z,20.9
2022-12-08T00:22:19.107Z,20.9
2022-12-08T00:23:21.014Z,20.9
2022-12-08T00:24:22.766Z,20.9
2022-12-08T00:25:24.626Z,20.9
2022-12-08T00:26:26.457Z,20.9
2022-12-08T00:27:28.305Z,20.9
2022-12-08T00:28:30.048Z,20.9
2022-12-08T00:29:31.906Z,20.9
2022-12-08T00:30:33.758Z,20.9
2022-12-08T00:31:35.758Z,20.9
2022-12-08T00:32:37.834Z,20.9
2022-12-08T00:33:39.559Z,20.9
2022-12-08T00:34:41.250Z,20.9
2022-12-08T00:35:43.716Z,20.9
2022-12-08T00:36:45.382Z,20.9
2022-12-08T00:37:47.186Z,20.9
2022-12-08T00:38:49.060Z,20.9
2022-12-08T00:39:50.683Z,20.9
2022-12-08T00:40:52.680Z,20.9
2022-12-08T00:41:54.514Z,20.9
2022-12-08T00:42:56.365Z,20.9
2022-12-08T00:43:58.123Z,20.9
2022-12-08T00:44:59.905Z,20.8
2022-12-08T00:46:02.009Z,20.8
2022-12-08T00:47:04.076Z,20.8
2022-12-08T00:48:05.919Z,20.9
2022-12-08T00:49:07.633Z,20.8
2022-12-08T00:50:09.509Z,20.8
2022-12-08T00:51:11.364Z,20.8
2022-12-08T00:52:13.347Z,20.8
2022-12-08T00:53:15.132Z,20.8
2022-12-08T00:54:16.923Z,20.8
2022-12-08T00:55:18.770Z,20.8
2022-12-08T00:56:20.649Z,20.8
2022-12-08T00:57:22.562Z,20.8
2022-12-08T00:58:24.318Z,20.8
2022-12-08T00:59:26.067Z,20.8
2022-12-08T01:00:27.768Z,20.8
2022-12-08T01:01:32.593Z,20.8
2022-12-08T01:02:34.685Z,20.8
2022-12-08T01:03:36.551Z,20.7
2022-12-08T01:04:38.428Z,20.8
2022-12-08T01:05:40.084Z,20.7
2022-12-08T01:06:41.885Z,20.7
2022-12-08T01:07:43.770Z,20.7
2022-12-08T01:08:45.791Z,20.7
2022-12-08T01:09:47.518Z,20.7
2022-12-08T01:10:49.382Z,20.7
2022-12-08T01:11:51.169Z,20.7
2022-12-08T01:12:53.084Z,20.7
2022-12-08T01:13:54.732Z,20.7
2022-12-08T01:15:02.617Z,20.7
2022-12-08T01:16:04.887Z,20.7
2022-12-08T01:17:06.770Z,20.7
2022-12-08T01:18:08.891Z,20.7
2022-12-08T01:19:10.732Z,20.7
2022-12-08T01:20:12.486Z,20.7
2022-12-08T01:21:14.164Z,20.7
2022-12-08T01:22:15.771Z,20.7
2022-12-08T01:23:17.604Z,20.7
2022-12-08T01:24:19.366Z,20.7
2022-12-08T01:25:21.330Z,20.7
2022-12-08T01:26:23.066Z,20.6
2022-12-08T01:27:24.839Z,20.6
2022-12-08T01:28:26.675Z,20.6
2022-12-08T01:29:28.460Z,20.6
2022-12-08T01:30:30.378Z,20.6
2022-12-08T01:31:32.339Z,20.6
2022-12-08T01:32:34.065Z,20.6
2022-12-08T01:33:35.688Z,20.6
2022-12-08T01:34:37.681Z,20.6
2022-12-08T01:35:39.410Z,20.6
2022-12-08T01:36:41.171Z,20.6
2022-12-08T01:37:42.888Z,20.6
2022-12-08T01:38:44.662Z,20.6
2022-12-08T01:39:46.511Z,20.6
2022-12-08T01:40:48.207Z,20.6
2022-12-08T01:41:49.906Z,20.6
2022-12-08T01:42:51.668Z,20.6
2022-12-08T01:43:53.500Z,20.6
2022-12-08T01:44:55.342Z,20.6
2022-12-08T01:45:57.193Z,20.6
2022-12-08T01:46:59.053Z,20.6
2022-12-08T01:48:01.138Z,20.6
2022-12-08T01:49:03.154Z,20.6
2022-12-08T01:50:05.723Z,20.5
2022-12-08T01:51:08.611Z,20.5
2022-12-08T01:52:10.419Z,20.6
2022-12-08T01:53:12.200Z,20.6
2022-12-08T01:54:13.937Z,20.5
2022-12-08T01:55:15.786Z,20.5
2022-12-08T01:56:17.628Z,20.5
2022-12-08T01:57:19.402Z,20.5
2022-12-08T01:58:21.273Z,20.5
2022-12-08T01:59:23.039Z,20.5
2022-12-08T02:00:25.021Z,20.6
2022-12-08T02:01:26.957Z,20.5
2022-12-08T02:02:29.057Z,20.5
2022-12-08T02:03:31.052Z,20.5
2022-12-08T02:04:32.759Z,20.5
2022-12-08T02:05:34.499Z,20.5
2022-12-08T02:06:36.253Z,20.5
2022-12-08T02:07:38.216Z,20.5
2022-12-08T02:08:40.044Z,20.5
2022-12-08T02:09:41.739Z,20.5
2022-12-08T02:10:43.494Z,20.5
2022-12-08T02:11:45.194Z,20.5
2022-12-08T02:12:47.150Z,20.5
2022-12-08T02:13:48.965Z,20.5
2022-12-08T02:14:50.845Z,20.5
2022-12-08T02:15:52.721Z,20.5
2022-12-08T02:16:54.846Z,20.5
2022-12-08T02:17:56.588Z,20.6
2022-12-08T02:19:31.318Z,20.5
2022-12-08T02:20:33.984Z,20.5
2022-12-08T02:21:35.839Z,20.4
2022-12-08T02:22:37.553Z,20.4
2022-12-08T02:23:39.437Z,20.4
2022-12-08T02:24:44.042Z,20.4
2022-12-08T02:25:45.801Z,20.4
2022-12-08T02:26:47.615Z,20.5
2022-12-08T02:27:49.415Z,20.5
2022-12-08T02:28:51.378Z,20.5
2022-12-08T02:29:53.200Z,20.4
2022-12-08T02:30:55.254Z,20.5
2022-12-08T02:31:57.416Z,20.4
2022-12-08T02:32:59.159Z,20.5
2022-12-08T02:34:01.121Z,20.5
2022-12-08T02:35:02.853Z,20.4
2022-12-08T02:36:04.708Z,20.4
2022-12-08T02:37:06.387Z,20.4
2022-12-08T02:38:08.310Z,20.5
2022-12-08T02:39:10.156Z,20.4
2022-12-08T02:40:11.794Z,20.4
2022-12-08T02:41:13.395Z,20.5
2022-12-08T02:42:15.188Z,20.4
2022-12-08T02:43:17.152Z,20.4
2022-12-08T02:44:19.025Z,20.4
2022-12-08T02:45:20.949Z,20.4
2022-12-08T02:46:22.830Z,20.4
2022-12-08T02:47:24.951Z,20.4
2022-12-08T02:48:26.878Z,20.4
2022-12-08T02:49:28.620Z,20.4
2022-12-08T02:50:33.523Z,20.4
2022-12-08T02:51:35.326Z,20.4
2022-12-08T02:52:37.147Z,20.4
2022-12-08T02:53:38.916Z,20.4
2022-12-08T02:54:40.561Z,20.4
2022-12-08T02:55:42.423Z,20.4
2022-12-08T02:56:44.262Z,20.4
2022-12-08T02:57:46.024Z,20.4
2022-12-08T02:58:47.737Z,20.4
2022-12-08T02:59:49.636Z,20.4
2022-12-08T03:00:51.332Z,20.4
2022-12-08T03:01:53.491Z,20.4
2022-12-08T03:02:55.903Z,20.4
2022-12-08T03:03:58.151Z,20.3
2022-12-08T03:04:59.986Z,20.3
2022-12-08T03:06:02.015Z,20.3
2022-12-08T03:07:03.888Z,20.3
2022-12-08T03:08:05.874Z,20.3
2022-12-08T03:09:08.006Z,20.4
2022-12-08T03:10:09.752Z,20.3
2022-12-08T03:11:11.491Z,20.3
2022-12-08T03:12:13.442Z,20.3
2022-12-08T03:13:15.235Z,20.3
2022-12-08T03:14:17.126Z,20.3
2022-12-08T03:15:18.915Z,20.3
2022-12-08T03:16:21.050Z,20.3
2022-12-08T03:17:25.564Z,20.3
2022-12-08T03:18:27.422Z,20.3
2022-12-08T03:19:29.379Z,20.3
2022-12-08T03:20:31.174Z,20.3
2022-12-08T03:21:32.918Z,20.3
2022-12-08T03:22:34.832Z,20.3
2022-12-08T03:23:37.173Z,20.3
2022-12-08T03:24:39.030Z,20.3
2022-12-08T03:25:40.976Z,20.2
2022-12-08T03:26:42.837Z,20.3
2022-12-08T03:27:44.981Z,20.2
2022-12-08T03:28:46.686Z,20.3
2022-12-08T03:29:48.464Z,20.3
2022-12-08T03:30:50.278Z,20.3
2022-12-08T03:31:52.228Z,20.3
2022-12-08T03:32:54.036Z,20.2
2022-12-08T03:33:55.881Z,20.2
2022-12-08T03:34:57.519Z,20.2
2022-12-08T03:35:59.270Z,20.2
2022-12-08T03:37:00.915Z,20.2
2022-12-08T03:38:02.746Z,20.2
2022-12-08T03:39:04.573Z,20.2
2022-12-08T03:40:07.179Z,20.3
2022-12-08T03:41:09.645Z,20.2
2022-12-08T03:42:11.394Z,20.2
2022-12-08T03:43:13.151Z,20.2
2022-12-08T03:44:15.006Z,20.2
2022-12-08T03:45:16.742Z,20.2
2022-12-08T03:46:18.568Z,20.2
2022-12-08T03:47:20.655Z,20.2
2022-12-08T03:48:22.502Z,20.2
2022-12-08T03:49:24.199Z,20.2
2022-12-08T03:50:25.991Z,20.1
2022-12-08T03:51:27.738Z,20.2
2022-12-08T03:52:29.453Z,20.2
2022-12-08T03:53:31.088Z,20.1
2022-12-08T03:54:32.780Z,20.1
2022-12-08T03:55:34.448Z,20.2
2022-12-08T03:56:39.251Z,20.1
2022-12-08T03:57:40.935Z,20.1
2022-12-08T03:58:42.644Z,20.2
2022-12-08T03:59:44.379Z,20.2
2022-12-08T04:00:46.036Z,20.1
2022-12-08T04:01:48.095Z,20.1
2022-12-08T04:02:50.253Z,20.1
2022-12-08T04:03:52.409Z,20.1
2022-12-08T04:04:54.139Z,20.1
2022-12-08T04:05:55.841Z,20.1
2022-12-08T04:06:57.645Z,20
2022-12-08T04:07:59.525Z,20.1
2022-12-08T04:09:01.438Z,20.1
2022-12-08T04:10:04.171Z,20.1
2022-12-08T04:11:07.084Z,20.1
2022-12-08T04:12:08.795Z,20.1
2022-12-08T04:13:10.431Z,20
2022-12-08T04:14:12.236Z,20
2022-12-08T04:15:13.994Z,20
2022-12-08T04:16:16.106Z,20.1
2022-12-08T04:17:18.168Z,20
2022-12-08T04:18:20.037Z,20.1
2022-12-08T04:19:21.802Z,20.1
2022-12-08T04:20:23.532Z,20.1
2022-12-08T04:21:25.246Z,20
2022-12-08T04:22:27.242Z,20.1
2022-12-08T04:23:29.502Z,20.1
2022-12-08T04:24:31.240Z,20.1
2022-12-08T04:25:33.114Z,20
2022-12-08T04:26:34.893Z,20
2022-12-08T04:27:36.671Z,20.3
2022-12-08T04:28:38.553Z,20.2
2022-12-08T04:29:40.294Z,20.3
2022-12-08T04:30:42.060Z,20.2
2022-12-08T04:31:43.931Z,20.2
2022-12-08T04:32:47.912Z,20.3
2022-12-08T04:33:49.742Z,20.2
2022-12-08T04:34:51.566Z,20.3
2022-12-08T04:35:53.331Z,20.3
2022-12-08T04:36:55.284Z,20.3
2022-12-08T04:37:57.147Z,20.3
2022-12-08T04:38:58.889Z,20.4
2022-12-08T04:40:00.870Z,20.4
2022-12-08T04:41:03.205Z,20.3
2022-12-08T04:42:05.148Z,20.3
2022-12-08T04:43:07.009Z,20.3
2022-12-08T04:44:08.853Z,20.4
2022-12-08T04:45:10.606Z,20.3
2022-12-08T04:46:12.609Z,20.3
2022-12-08T04:47:15.056Z,20.3
2022-12-08T04:48:17.005Z,20.2
2022-12-08T04:49:18.830Z,20.2
2022-12-08T04:50:20.670Z,20.3
2022-12-08T04:51:22.286Z,20.3
2022-12-08T04:52:24.166Z,20.3
2022-12-08T04:53:25.986Z,20.4
2022-12-08T04:54:27.767Z,20.3
2022-12-08T04:55:29.618Z,20.6
2022-12-08T04:56:31.305Z,20.5
2022-12-08T04:57:32.945Z,20.6
2022-12-08T04:58:34.752Z,20.7
2022-12-08T04:59:36.547Z,20.7
2022-12-08T05:00:38.231Z,20.5
2022-12-08T05:01:40.397Z,20.6
2022-12-08T05:02:43.193Z,20.6
2022-12-08T05:03:45.275Z,20.7
2022-12-08T05:04:47.077Z,20.6
2022-12-08T05:05:48.837Z,20.7
2022-12-08T05:06:50.677Z,20.8
2022-12-08T05:07:52.696Z,20.9
2022-12-08T05:08:54.729Z,20.9
2022-12-08T05:09:56.535Z,21
2022-12-08T05:10:58.477Z,21.1
2022-12-08T05:12:00.453Z,21.1
2022-12-08T05:13:02.204Z,21.2
2022-12-08T05:14:04.045Z,21.1
2022-12-08T05:15:05.684Z,21.2
2022-12-08T05:16:07.754Z,21.2
2022-12-08T05:17:10.207Z,21.2
2022-12-08T05:18:12.063Z,21.2
2022-12-08T05:19:13.795Z,21.2
2022-12-08T05:20:15.558Z,21.4
2022-12-08T05:21:17.498Z,21.4
2022-12-08T05:22:19.213Z,21.5
2022-12-08T05:23:20.995Z,21.6
2022-12-08T05:24:22.732Z,21.6
2022-12-08T05:25:24.601Z,21.6
2022-12-08T05:26:26.548Z,21.6
2022-12-08T05:27:28.295Z,21.7
2022-12-08T05:28:43.218Z,21.6
2022-12-08T05:29:46.032Z,21.5
2022-12-08T05:30:47.786Z,21.5
2022-12-08T05:31:50.147Z,21.5
2022-12-08T05:32:52.273Z,21.5
2022-12-08T05:33:54.043Z,21.4
2022-12-08T05:35:02.380Z,21.4
2022-12-08T05:36:04.203Z,21.3
2022-12-08T05:37:06.155Z,21.4
2022-12-08T05:38:07.891Z,21.3
2022-12-08T05:39:09.585Z,21.2
2022-12-08T05:40:11.606Z,21.2
2022-12-08T05:41:13.555Z,21.2
2022-12-08T05:42:16.173Z,21.2
2022-12-08T05:43:26.629Z,21.3
2022-12-08T05:44:28.833Z,21.3
2022-12-08T05:45:30.716Z,21.4
2022-12-08T05:46:32.467Z,21.4
2022-12-08T05:47:36.481Z,21.3
2022-12-08T05:48:38.476Z,21.4
2022-12-08T05:49:40.331Z,21.4
2022-12-08T05:50:42.204Z,21.4
2022-12-08T05:51:44.050Z,21.4
2022-12-08T05:52:45.975Z,21.4
2022-12-08T05:53:47.729Z,21.4
2022-12-08T05:54:49.417Z,21.4
2022-12-08T05:55:51.112Z,21.4
2022-12-08T05:56:52.762Z,21.4
2022-12-08T05:57:54.463Z,21.3
2022-12-08T05:58:56.363Z,21.3
2022-12-08T05:59:59.133Z,21.3
2022-12-08T06:01:00.885Z,21.2
2022-12-08T06:02:03.138Z,21.3
2022-12-08T06:03:05.771Z,21.2
2022-12-08T06:04:08.168Z,21.2
2022-12-08T06:05:10.033Z,21.3
2022-12-08T06:06:11.890Z,21.3
2022-12-08T06:07:16.496Z,21.2
2022-12-08T06:08:18.463Z,21.2
2022-12-08T06:09:20.592Z,21.3
2022-12-08T06:10:22.417Z,21.2
2022-12-08T06:11:24.491Z,21.2
2022-12-08T06:12:26.239Z,21.2
2022-12-08T06:13:27.999Z,21.2
2022-12-08T06:14:29.866Z,21.3
2022-12-08T06:15:31.655Z,21.2
2022-12-08T06:16:33.976Z,21.2
2022-12-08T06:17:38.690Z,21.2
2022-12-08T06:18:40.396Z,21.2
2022-12-08T06:19:42.179Z,21.2
2022-12-08T06:20:44.146Z,21.2
2022-12-08T06:21:45.980Z,21.2
2022-12-08T06:22:47.824Z,21.2
2022-12-08T06:23:49.950Z,21.2
2022-12-08T06:24:51.929Z,21.2
2022-12-08T06:25:53.720Z,21.2
2022-12-08T06:26:55.441Z,21.2
2022-12-08T06:27:57.143Z,21.2
2022-12-08T06:28:58.970Z,21.2
2022-12-08T06:30:00.923Z,21.2
2022-12-08T06:31:03.322Z,21.2
2022-12-08T06:32:05.257Z,21.2
2022-12-08T06:33:07.469Z,21.2
2022-12-08T06:34:09.309Z,21.1
2022-12-08T06:35:11.089Z,21.1
2022-12-08T06:36:12.784Z,21.1
2022-12-08T06:37:14.666Z,21.1
2022-12-08T06:38:16.382Z,21.2
2022-12-08T06:39:18.138Z,21.2
2022-12-08T06:40:19.889Z,21.1
2022-12-08T06:41:21.761Z,21.1
2022-12-08T06:42:23.583Z,21.1
2022-12-08T06:43:25.282Z,21.1
2022-12-08T06:44:26.873Z,21
2022-12-08T06:45:28.722Z,21
2022-12-08T06:46:30.979Z,21
2022-12-08T06:47:33.261Z,21
2022-12-08T06:48:34.993Z,21
2022-12-08T06:49:36.749Z,21
2022-12-08T06:50:38.456Z,21
2022-12-08T06:51:40.223Z,21
2022-12-08T06:53:00.925Z,20.9
2022-12-08T06:54:07.494Z,20.9
2022-12-08T06:55:09.228Z,20.9
2022-12-08T06:56:10.880Z,20.8
2022-12-08T06:57:12.570Z,20.8
2022-12-08T06:58:14.272Z,20.8
2022-12-08T06:59:16.017Z,20.7
2022-12-08T07:00:17.806Z,20.7
2022-12-08T07:01:19.793Z,20.7
2022-12-08T07:02:22.035Z,20.7
2022-12-08T07:03:23.926Z,20.6
2022-12-08T07:04:25.790Z,20.5
2022-12-08T07:05:27.402Z,20.4
2022-12-08T07:06:29.400Z,20.4
2022-12-08T07:07:34.160Z,20.3
2022-12-08T07:08:36.048Z,20.3
2022-12-08T07:09:37.914Z,20.3
2022-12-08T07:10:39.679Z,20.3
2022-12-08T07:11:41.410Z,20.2
2022-12-08T07:12:44.698Z,20.1
2022-12-08T07:13:46.523Z,20.1
2022-12-08T07:14:48.239Z,20.1
2022-12-08T07:15:50.080Z,20.1
2022-12-08T07:16:52.019Z,20.2
2022-12-08T07:18:00.561Z,20.1
2022-12-08T07:19:02.743Z,20.1
2022-12-08T07:20:05.090Z,20.1
2022-12-08T07:21:08.286Z,20.1
2022-12-08T07:22:10.039Z,20.1
2022-12-08T07:23:11.685Z,20.1
2022-12-08T07:24:13.567Z,20.1
2022-12-08T07:25:15.280Z,20.3
2022-12-08T07:26:17.124Z,20.2
2022-12-08T07:27:18.786Z,20.3
2022-12-08T07:28:20.476Z,20.3
2022-12-08T07:29:26.631Z,20.3
2022-12-08T07:30:28.930Z,20.3
2022-12-08T07:31:31.416Z,20.4
2022-12-08T07:32:33.243Z,20.5
2022-12-08T07:33:35.091Z,20.5
2022-12-08T07:34:36.844Z,20.5
2022-12-08T07:35:38.497Z,20.5
2022-12-08T07:36:40.170Z,20.5
2022-12-08T07:37:42.099Z,20.7
2022-12-08T07:38:43.839Z,20.6
2022-12-08T07:39:45.711Z,20.9
2022-12-08T07:40:47.633Z,20.9
2022-12-08T07:41:49.487Z,20.7
2022-12-08T07:42:51.240Z,20.7
2022-12-08T07:43:53.084Z,20.8
2022-12-08T07:44:54.829Z,21.2
2022-12-08T07:45:56.956Z,21.3
2022-12-08T07:46:59.045Z,21
2022-12-08T07:48:00.792Z,21.1
2022-12-08T07:49:02.959Z,21
2022-12-08T07:50:05.508Z,21.1
2022-12-08T07:51:07.873Z,21
2022-12-08T07:52:09.839Z,21.1
2022-12-08T07:53:11.956Z,21.2
2022-12-08T07:54:13.751Z,21.2
2022-12-08T07:55:15.475Z,21.1
2022-12-08T07:56:17.340Z,21.2
2022-12-08T07:57:19.192Z,21.1
2022-12-08T07:58:21.034Z,21
2022-12-08T07:59:22.883Z,21
2022-12-08T08:00:25.023Z,21
2022-12-08T08:01:27.381Z,21
2022-12-08T08:02:30.251Z,20.9
2022-12-08T08:03:32.442Z,21
2022-12-08T08:04:34.322Z,20.9
2022-12-08T08:05:36.304Z,21
2022-12-08T08:06:38.193Z,20.9
2022-12-08T08:07:40.195Z,20.8
2022-12-08T08:08:42.377Z,20.9
2022-12-08T08:09:44.111Z,21
2022-12-08T08:10:46.013Z,20.9
2022-12-08T08:12:30.563Z,20.9
2022-12-08T08:13:34.909Z,20.9
2022-12-08T08:14:36.544Z,20.8
2022-12-08T08:15:38.516Z,20.8
2022-12-08T08:16:40.794Z,20.8
2022-12-08T08:17:42.867Z,20.8
2022-12-08T08:18:44.617Z,20.8
2022-12-08T08:19:46.381Z,20.8
2022-12-08T08:20:48.193Z,20.9
2022-12-08T08:21:49.874Z,21
2022-12-08T08:22:51.716Z,20.9
2022-12-08T08:23:53.457Z,20.9
2022-12-08T08:24:55.084Z,20.9
2022-12-08T08:25:56.940Z,20.9
2022-12-08T08:26:58.913Z,21
2022-12-08T08:28:00.593Z,21.1
2022-12-08T08:29:02.409Z,21.1
2022-12-08T08:30:04.956Z,21.2
2022-12-08T08:31:07.568Z,21.2
2022-12-08T08:32:09.690Z,21.3
2022-12-08T08:33:11.531Z,21.1
2022-12-08T08:34:13.285Z,21.1
2022-12-08T08:35:15.042Z,21
2022-12-08T08:36:16.705Z,21
2022-12-08T08:37:18.607Z,21.1
2022-12-08T08:38:20.383Z,21.1
2022-12-08T08:39:22.148Z,21.3
2022-12-08T08:40:24.087Z,21.1
2022-12-08T08:41:26.027Z,20.9
2022-12-08T08:42:27.882Z,21.1
2022-12-08T08:43:38.013Z,21
2022-12-08T08:44:40.697Z,20.9
2022-12-08T08:45:42.423Z,20.9
2022-12-08T08:46:44.376Z,21
2022-12-08T08:47:46.335Z,21.1
2022-12-08T08:48:48.198Z,21
2022-12-08T08:49:50.666Z,21
2022-12-08T08:50:52.355Z,21
2022-12-08T08:51:54.045Z,21
2022-12-08T08:52:55.913Z,20.9
2022-12-08T08:53:57.662Z,21
2022-12-08T08:54:59.517Z,21
2022-12-08T08:56:03.227Z,21.1
2022-12-08T08:57:05.087Z,21
2022-12-08T08:58:06.821Z,20.9
2022-12-08T08:59:08.652Z,21
2022-12-08T09:00:10.708Z,21
2022-12-08T09:01:12.628Z,20.9
2022-12-08T09:02:17.607Z,21
2022-12-08T09:03:19.577Z,21
2022-12-08T09:04:21.760Z,21
2022-12-08T09:05:23.726Z,21
2022-12-08T09:06:25.584Z,21
2022-12-08T09:07:27.755Z,21
2022-12-08T09:08:29.758Z,21.1
2022-12-08T09:09:31.764Z,21
2022-12-08T09:10:33.509Z,20.9
2022-12-08T09:11:35.257Z,20.9
2022-12-08T09:12:37.102Z,20.8
2022-12-08T09:13:38.850Z,20.9
2022-12-08T09:14:40.803Z,20.9
2022-12-08T09:15:42.765Z,20.9
2022-12-08T09:16:44.978Z,20.9
2022-12-08T09:17:47.055Z,21
2022-12-08T09:18:48.644Z,21.2
2022-12-08T09:19:50.467Z,21.1
2022-12-08T09:20:53.235Z,21.1
2022-12-08T09:21:54.987Z,21.1
2022-12-08T09:22:59.290Z,21
2022-12-08T09:24:01.045Z,21.1
2022-12-08T09:25:02.781Z,21.1
2022-12-08T09:26:04.593Z,21.1
2022-12-08T09:27:06.448Z,21.1
2022-12-08T09:28:08.276Z,21.3
2022-12-08T09:29:10.018Z,21.2
2022-12-08T09:30:11.982Z,21.1
2022-12-08T09:31:14.359Z,21.2
2022-12-08T09:32:16.553Z,21.1
2022-12-08T09:33:18.398Z,21.1
2022-12-08T09:34:20.259Z,21.1
2022-12-08T09:35:21.999Z,21.1
2022-12-08T09:36:23.861Z,21.4
2022-12-08T09:37:25.480Z,21.3
2022-12-08T09:38:27.344Z,21.4
2022-12-08T09:39:29.086Z,21.3
2022-12-08T09:40:30.935Z,21.3
2022-12-08T09:41:43.444Z,21.2
2022-12-08T09:42:50.243Z,21.2
2022-12-08T09:43:51.850Z,21.1
2022-12-08T09:44:53.600Z,21.3
2022-12-08T09:45:55.452Z,21.9
2022-12-08T09:46:57.569Z,21.5
2022-12-08T09:47:59.990Z,21.4
2022-12-08T09:49:01.828Z,21.3
2022-12-08T09:50:04.216Z,21.2
2022-12-08T09:51:07.264Z,21.2
2022-12-08T09:52:09.400Z,21.2
2022-12-08T09:53:11.287Z,21.2
2022-12-08T09:54:13.423Z,21.3
2022-12-08T09:55:15.495Z,21.3
2022-12-08T09:56:17.333Z,21.4
2022-12-08T09:57:19.090Z,21.3
2022-12-08T09:58:20.714Z,21.2
2022-12-08T09:59:22.586Z,21.2
2022-12-08T10:00:24.423Z,21.2
2022-12-08T10:01:26.479Z,21.2
2022-12-08T10:02:28.540Z,21.2
2022-12-08T10:03:30.687Z,21.2
2022-12-08T10:04:33.033Z,21
2022-12-08T10:05:35.406Z,21.2
2022-12-08T10:06:37.471Z,21.4
2022-12-08T10:07:39.367Z,21.3
2022-12-08T10:08:41.429Z,21.5
2022-12-08T10:09:42.996Z,21.5
2022-12-08T10:10:44.860Z,21.4
2022-12-08T10:11:46.636Z,21.4
2022-12-08T10:12:48.261Z,21.6
2022-12-08T10:13:50.113Z,21.3
2022-12-08T10:14:51.977Z,21.6
2022-12-08T10:15:53.940Z,21.6
2022-12-08T10:16:56.190Z,21.6
2022-12-08T10:17:58.329Z,21.6
2022-12-08T10:18:59.980Z,21.8
2022-12-08T10:20:02.418Z,21.8
2022-12-08T10:21:05.720Z,21.8
2022-12-08T10:22:07.461Z,21.7
2022-12-08T10:23:09.230Z,21.7
2022-12-08T10:24:13.736Z,21.7
2022-12-08T10:25:15.598Z,21.6
2022-12-08T10:26:17.420Z,21.5
2022-12-08T10:27:19.077Z,21.5
2022-12-08T10:28:21.021Z,21.4
2022-12-08T10:29:22.883Z,21.4
2022-12-08T10:30:24.607Z,21.3
2022-12-08T10:31:26.668Z,21.5
2022-12-08T10:32:28.736Z,21.5
2022-12-08T10:33:30.483Z,21.5
2022-12-08T10:34:32.342Z,21.4
2022-12-08T10:35:34.085Z,21.3
2022-12-08T10:36:36.035Z,21.3
2022-12-08T10:37:37.763Z,21.2
2022-12-08T10:38:39.598Z,21.2
2022-12-08T10:39:41.478Z,21.3
2022-12-08T10:40:46.023Z,21.3
2022-12-08T10:41:47.834Z,21.2
2022-12-08T10:42:49.519Z,21.2
2022-12-08T10:43:51.242Z,21.2
2022-12-08T10:44:52.950Z,21.3
2022-12-08T10:45:54.754Z,21.2
2022-12-08T10:46:56.807Z,21.4
2022-12-08T10:47:58.840Z,21.4
2022-12-08T10:49:00.692Z,21.4
2022-12-08T10:50:03.658Z,21.3
2022-12-08T10:51:06.294Z,21.2
2022-12-08T10:52:08.081Z,21.4
2022-12-08T10:53:09.829Z,21.5
2022-12-08T10:54:11.554Z,21.6
2022-12-08T10:55:13.329Z,21.4
2022-12-08T10:56:15.283Z,21.4
2022-12-08T10:57:17.095Z,21.3
2022-12-08T10:58:18.878Z,21.4
2022-12-08T10:59:20.546Z,21.3
2022-12-08T11:00:22.452Z,21.5
2022-12-08T11:01:24.423Z,21.7
2022-12-08T11:02:26.570Z,21.7
2022-12-08T11:03:28.841Z,21.6
2022-12-08T11:04:30.787Z,21.6
2022-12-08T11:05:32.556Z,21.6
2022-12-08T11:06:34.386Z,21.6
2022-12-08T11:07:36.460Z,21.5
2022-12-08T11:08:38.554Z,21.6
2022-12-08T11:09:40.468Z,21.8
2022-12-08T11:10:42.712Z,21.7
2022-12-08T11:11:44.469Z,21.6
2022-12-08T11:12:46.217Z,21.5
2022-12-08T11:13:47.937Z,21.6
2022-12-08T11:14:49.838Z,21.6
2022-12-08T11:15:51.624Z,21.6
2022-12-08T11:16:53.716Z,21.6
2022-12-08T11:17:57.914Z,21.6
2022-12-08T11:18:59.563Z,21.6
2022-12-08T11:20:01.732Z,21.5
2022-12-08T11:21:04.706Z,21.5
2022-12-08T11:22:06.477Z,21.5
2022-12-08T11:23:08.295Z,21.7
2022-12-08T11:24:10.031Z,21.7
2022-12-08T11:25:12.020Z,21.8
2022-12-08T11:26:13.943Z,21.9
2022-12-08T11:27:15.670Z,22
2022-12-08T11:28:17.462Z,22
2022-12-08T11:29:19.098Z,22.1
2022-12-08T11:30:21.105Z,22
2022-12-08T11:31:23.430Z,21.9
2022-12-08T11:32:25.550Z,22
2022-12-08T11:33:27.414Z,22
2022-12-08T11:34:29.173Z,22.1
2022-12-08T11:35:31.020Z,22.1
2022-12-08T11:36:33.300Z,22.1
2022-12-08T11:37:35.791Z,22.2
2022-12-08T11:38:37.753Z,22.2
2022-12-08T11:39:39.626Z,22.2
2022-12-08T11:40:41.403Z,22.2
2022-12-08T11:41:44.257Z,22.2
2022-12-08T11:42:46.108Z,22.2
2022-12-08T11:43:47.714Z,22.2
2022-12-08T11:44:49.625Z,22.3
2022-12-08T11:45:52.219Z,22.4
2022-12-08T11:46:54.452Z,22.3
2022-12-08T11:47:56.456Z,22.3
2022-12-08T11:49:06.554Z,22.4
2022-12-08T11:50:09.727Z,22.4
2022-12-08T11:51:13.580Z,22.3
2022-12-08T11:52:15.566Z,22.3
2022-12-08T11:53:17.909Z,22.3
2022-12-08T11:54:19.670Z,22.4
2022-12-08T11:55:21.518Z,22.4
2022-12-08T11:56:23.652Z,22.5
2022-12-08T11:57:25.403Z,22.4
2022-12-08T11:58:27.433Z,22.4
2022-12-08T11:59:29.652Z,22.4
2022-12-08T12:00:31.443Z,22.5
2022-12-08T12:01:42.775Z,22.6
2022-12-08T12:02:44.997Z,22.5
2022-12-08T12:03:47.346Z,22.6
2022-12-08T12:04:49.856Z,22.6
2022-12-08T12:06:46.774Z,22.6
2022-12-08T12:07:57.669Z,22.5
2022-12-08T12:08:59.734Z,22.5
2022-12-08T12:10:01.771Z,22.6
2022-12-08T12:11:04.636Z,22.6
2022-12-08T12:12:06.346Z,22.6
2022-12-08T12:13:09.048Z,22.6
2022-12-08T12:14:10.760Z,22.6
2022-12-08T12:15:13.128Z,22.6
2022-12-08T12:16:15.074Z,22.7
2022-12-08T12:17:17.072Z,22.7
2022-12-08T12:18:18.822Z,22.7
2022-12-08T12:19:20.669Z,22.7
2022-12-08T12:20:22.505Z,22.7
2022-12-08T12:21:24.259Z,22.9
2022-12-08T12:22:26.053Z,22.8
2022-12-08T12:23:27.756Z,22.7
2022-12-08T12:24:36.152Z,22.8
2022-12-08T12:25:38.215Z,22.8
2022-12-08T12:26:40.023Z,22.8
2022-12-08T12:27:41.799Z,22.8
2022-12-08T12:28:43.562Z,22.9
2022-12-08T12:29:45.309Z,22.8
2022-12-08T12:30:53.739Z,22.8
2022-12-08T12:31:55.826Z,22.8
2022-12-08T12:32:57.583Z,22.8
2022-12-08T12:33:59.330Z,22.8
2022-12-08T12:35:01.258Z,22.9
2022-12-08T12:36:02.983Z,22.9
2022-12-08T12:37:04.599Z,22.9
2022-12-08T12:38:06.538Z,22.8
2022-12-08T12:39:08.417Z,22.8
2022-12-08T12:40:10.359Z,22.8
2022-12-08T12:41:12.200Z,23
2022-12-08T12:42:13.869Z,23.2
2022-12-08T12:43:15.670Z,23.1
2022-12-08T12:44:17.541Z,23.2
2022-12-08T12:45:19.575Z,23
2022-12-08T12:46:21.478Z,23.1
2022-12-08T12:47:23.610Z,23
2022-12-08T12:48:25.457Z,23.1
2022-12-08T12:49:27.304Z,23.2
2022-12-08T12:50:29.201Z,23.2
2022-12-08T12:51:30.831Z,23.3
2022-12-08T12:52:32.665Z,23.3
2022-12-08T12:53:34.305Z,23.3
2022-12-08T12:54:36.059Z,23.3
2022-12-08T12:55:37.900Z,23.3
2022-12-08T12:56:39.719Z,23.3
2022-12-08T12:57:41.610Z,23.4
2022-12-08T12:58:43.192Z,23.5
2022-12-08T12:59:51.730Z,23.5
2022-12-08T13:00:57.966Z,23.5
2022-12-08T13:02:00.484Z,23.5
2022-12-08T13:03:02.589Z,23.6
2022-12-08T13:04:04.781Z,23.6
2022-12-08T13:05:06.736Z,23.6
2022-12-08T13:06:14.963Z,23.5
2022-12-08T13:07:17.000Z,23.4
2022-12-08T13:08:18.911Z,23.4
2022-12-08T13:09:20.886Z,23.5
2022-12-08T13:10:22.666Z,23.5
2022-12-08T13:11:24.422Z,23.5
2022-12-08T13:12:26.253Z,23.5
2022-12-08T13:13:28.012Z,23.5
2022-12-08T13:14:29.837Z,23.6
2022-12-08T13:15:31.482Z,23.6
2022-12-08T13:16:33.325Z,23.6
2022-12-08T13:17:35.514Z,23.6
2022-12-08T13:18:37.205Z,23.6
2022-12-08T13:19:38.976Z,23.6
2022-12-08T13:20:40.738Z,23.6
2022-12-08T13:21:42.555Z,23.6
2022-12-08T13:22:44.447Z,23.6
2022-12-08T13:23:46.104Z,23.5
2022-12-08T13:24:47.918Z,23.6
2022-12-08T13:25:49.875Z,23.6
2022-12-08T13:26:51.488Z,23.5
2022-12-08T13:27:53.386Z,23.5
2022-12-08T13:28:55.168Z,23.5
2022-12-08T13:29:56.968Z,23.6
2022-12-08T13:30:58.774Z,23.7
2022-12-08T13:32:00.776Z,23.8
2022-12-08T13:33:19.074Z,24
2022-12-08T13:34:21.578Z,23.9
2022-12-08T13:35:23.355Z,23.9
2022-12-08T13:36:25.169Z,23.8
2022-12-08T13:37:26.956Z,23.7
2022-12-08T13:38:28.675Z,23.7
2022-12-08T13:39:30.410Z,23.6
2022-12-08T13:40:32.160Z,23.6
2022-12-08T13:41:34.011Z,23.6
2022-12-08T13:42:35.760Z,23.6
2022-12-08T13:44:39.067Z,23.5
2022-12-08T13:47:34.361Z,23.3
2022-12-08T13:56:51.993Z,23.3
2022-12-08T13:58:14.839Z,23.2
2022-12-08T13:59:16.723Z,23.3
2022-12-08T14:00:18.387Z,23.3
2022-12-08T14:01:20.163Z,23.5
2022-12-08T14:02:22.401Z,23.5
2022-12-08T14:03:24.329Z,23.5
2022-12-08T14:07:13.425Z,23.5
2022-12-08T14:08:58.242Z,23.5
2022-12-08T14:10:12.105Z,23.6